createdAt,value
2023-04-22T00:07:29.856Z,63.15
2023-04-22T00:17:36.159Z,63.18
2023-04-22T00:27:43.314Z,63.66
2023-04-22T00:37:50.324Z,63.78
2023-04-22T00:47:57.926Z,63.80
2023-04-22T00:58:05.741Z,64.02
2023-04-22T01:08:13.638Z,64.49
2023-04-22T01:18:21.615Z,64.08
2023-04-22T01:28:30.105Z,64.58
2023-04-22T01:38:37.495Z,64.62
2023-04-22T01:48:50.523Z,64.97
2023-04-22T01:58:57.897Z,65.28
2023-04-22T02:09:05.118Z,65.58
2023-04-22T02:19:12.118Z,66.02
2023-04-22T02:29:19.373Z,66.43
2023-04-22T02:39:26.612Z,66.58
2023-04-22T02:49:33.698Z,66.51
2023-04-22T02:59:40.935Z,66.91
2023-04-22T03:09:48.671Z,67.35
2023-04-22T03:19:54.971Z,67.20
2023-04-22T03:30:02.294Z,67.60
2023-04-22T03:40:12.508Z,67.81
2023-04-22T03:50:19.740Z,68.11
2023-04-22T04:00:26.916Z,68.35
2023-04-22T04:10:32.825Z,68.40
2023-04-22T04:20:39.006Z,68.51
2023-04-22T04:30:46.058Z,68.62
2023-04-22T04:40:55.041Z,68.41
2023-04-22T04:51:04.462Z,68.07
2023-04-22T05:01:11.557Z,67.92
2023-04-22T05:11:18.843Z,67.53
2023-04-22T05:21:25.675Z,66.73
2023-04-22T05:31:33.066Z,65.51
2023-04-22T05:41:39.387Z,63.78
2023-04-22T05:51:47.898Z,62.13
2023-04-22T06:01:54.990Z,60.28
2023-04-22T06:12:01.928Z,58.81
2023-04-22T06:22:09.063Z,57.04
2023-04-22T06:32:16.530Z,55.08
2023-04-22T06:42:22.806Z,53.48
2023-04-22T06:52:29.819Z,51.83
2023-04-22T07:02:36.884Z,50.45
2023-04-22T07:12:45.586Z,49.16
2023-04-22T07:22:52.232Z,47.74
2023-04-22T07:32:59.527Z,46.69
2023-04-22T07:43:06.126Z,45.62
2023-04-22T07:53:15.898Z,43.72
2023-04-22T08:03:24.356Z,41.65
2023-04-22T08:13:31.667Z,41.43
2023-04-22T08:23:38.797Z,40.56
2023-04-22T08:33:46.035Z,37.93
2023-04-22T08:43:54.161Z,36.28
2023-04-22T08:54:01.122Z,35.81
2023-04-22T09:04:10.836Z,35.22
2023-04-22T09:14:19.067Z,35.26
2023-04-22T09:24:24.645Z,35.02
2023-04-22T09:34:32.165Z,35.30
2023-04-22T09:44:40.132Z,34.94
2023-04-22T09:54:50.709Z,34.45
2023-04-22T10:04:57.292Z,34.70
2023-04-22T10:15:06.678Z,33.86
2023-04-22T10:25:14.269Z,33.60
2023-04-22T10:35:27.466Z,32.97
2023-04-22T10:45:36.876Z,32.72
2023-04-22T10:55:50.287Z,33.06
2023-04-22T11:06:15.466Z,32.51
2023-04-22T11:16:23.249Z,33.18
2023-04-22T11:26:38.800Z,33.08
2023-04-22T11:36:46.472Z,32.44
2023-04-22T11:46:53.561Z,33.18
2023-04-22T11:57:02.403Z,32.10
2023-04-22T12:07:08.497Z,32.06
2023-04-22T12:17:16.614Z,32.98
2023-04-22T12:27:24.172Z,33.33
2023-04-22T12:37:31.342Z,31.63
2023-04-22T12:47:38.427Z,31.21
2023-04-22T12:57:46.094Z,31.04
2023-04-22T13:18:05.169Z,32.33
2023-04-22T13:28:11.816Z,31.89
2023-04-22T13:38:19.690Z,31.65
2023-04-22T13:48:27.708Z,31.88
2023-04-22T13:58:34.910Z,31.98
2023-04-22T14:08:42.561Z,31.59
2023-04-22T14:18:48.937Z,31.80
2023-04-22T14:28:56.224Z,31.52
2023-04-22T14:39:03.561Z,31.69
2023-04-22T14:49:10.795Z,32.36
2023-04-22T14:59:18.020Z,32.57
2023-04-22T15:09:24.744Z,32.70
2023-04-22T15:19:31.654Z,31.49
2023-04-22T15:29:39.217Z,32.15
2023-04-22T15:39:46.110Z,31.72
2023-04-22T15:49:53.887Z,32.01
2023-04-22T16:00:09.979Z,32.06
2023-04-22T16:10:17.895Z,32.17
2023-04-22T16:20:23.938Z,32.56
2023-04-22T16:30:31.396Z,32.71
2023-04-22T16:40:40.523Z,32.74
2023-04-22T16:50:47.692Z,33.19
2023-04-22T17:00:55.272Z,33.17
2023-04-22T17:11:02.507Z,33.48
2023-04-22T17:21:06.517Z,33.90
2023-04-22T17:31:14.163Z,34.30
2023-04-22T17:41:21.552Z,34.83
2023-04-22T17:51:29.356Z,35.34
2023-04-22T18:01:36.626Z,36.15
2023-04-22T18:11:41.928Z,36.40
2023-04-22T18:21:59.576Z,36.93
2023-04-22T18:32:08.254Z,37.26
2023-04-22T18:42:16.150Z,37.58
2023-04-22T18:52:22.387Z,38.12
2023-04-22T19:02:29.728Z,38.65
2023-04-22T19:12:37.294Z,38.96
2023-04-22T19:22:44.923Z,39.28
2023-04-22T19:32:52.140Z,39.87
2023-04-22T19:42:59.094Z,40.37
2023-04-22T19:53:07.842Z,41.04
2023-04-22T20:03:16.338Z,41.62
2023-04-22T20:13:22.716Z,42.20
2023-04-22T20:23:32.539Z,42.86
2023-04-22T20:33:39.949Z,43.23
2023-04-22T20:43:47.323Z,43.92
2023-04-22T20:53:55.163Z,44.37
2023-04-22T21:04:03.820Z,44.93
2023-04-22T21:14:10.397Z,45.54
2023-04-22T21:24:18.551Z,46.24
2023-04-22T21:44:31.060Z,47.06
2023-04-22T21:54:38.278Z,47.57
2023-04-22T22:04:46.135Z,48.06
2023-04-22T22:14:53.488Z,48.51
2023-04-22T22:25:00.547Z,48.79
2023-04-22T22:45:12.948Z,49.14
2023-04-22T22:55:20.292Z,49.27
2023-04-22T23:05:26.297Z,49.54
2023-04-22T23:15:33.648Z,49.79
2023-04-22T23:25:41.519Z,50.17
2023-04-22T23:35:49.821Z,50.58
2023-04-22T23:45:56.874Z,51.03
2023-04-22T23:56:04.955Z,51.46
